Time;durP1;ratioP1;P1;durP2;ratioP2;P2;SDS_P1;SDS_P2;PMS_P1;PMS_P2;Temp;Humidity;BMP_temperature;BMP_pressure;BME280_temperature;BME280_humidity;BME280_pressure;Samples;Min_cycle;Max_cycle;Signal;HPM_P1;HPM_P2
2024/01/07 00:02:19;;;;;;;11.07;5.57;;;9.10;99.90;;;;;;5033079;28;20022;-82
2024/01/07 00:04:44;;;;;;;11.65;6.63;;;9.00;99.90;;;;;;5036755;28;20021;-80
2024/01/07 00:07:10;;;;;;;12.02;5.82;;;9.00;99.90;;;;;;5031246;28;20609;-80
2024/01/07 00:09:35;;;;;;;11.75;6.18;;;9.00;99.90;;;;;;5034026;28;20025;-82
2024/01/07 00:12:01;;;;;;;12.55;6.40;;;9.00;99.90;;;;;;5031115;28;20059;-82
2024/01/07 00:14:26;;;;;;;12.57;6.30;;;9.00;99.90;;;;;;5030995;28;20028;-81
2024/01/07 00:16:52;;;;;;;11.88;6.45;;;9.00;99.90;;;;;;5030282;28;20076;-81
2024/01/07 00:19:17;;;;;;;9.02;5.60;;;9.00;99.90;;;;;;5034451;28;20033;-81
2024/01/07 00:21:43;;;;;;;11.63;6.47;;;9.00;99.90;;;;;;5030755;28;20072;-81
2024/01/07 00:24:08;;;;;;;11.32;6.57;;;9.00;99.90;;;;;;5033212;28;20029;-82
2024/01/07 00:26:34;;;;;;;13.70;6.50;;;9.00;99.90;;;;;;5038700;28;20099;-82
2024/01/07 00:28:59;;;;;;;11.20;6.38;;;9.00;99.90;;;;;;5037184;28;20044;-82
2024/01/07 00:31:25;;;;;;;11.85;5.65;;;9.00;99.90;;;;;;5030997;28;20034;-82
2024/01/07 00:33:50;;;;;;;12.80;6.68;;;9.00;99.90;;;;;;5036251;28;20039;-81
2024/01/07 00:36:16;;;;;;;10.13;6.25;;;9.00;99.90;;;;;;5033068;28;20133;-82
2024/01/07 00:38:41;;;;;;;10.63;5.55;;;9.00;99.90;;;;;;5037216;28;20039;-81
2024/01/07 00:41:07;;;;;;;14.65;6.90;;;9.00;99.90;;;;;;5033323;28;20120;-80
2024/01/07 00:43:33;;;;;;;11.80;6.07;;;9.00;99.90;;;;;;5038176;28;20075;-82
2024/01/07 00:45:58;;;;;;;13.13;7.15;;;9.00;99.90;;;;;;5034772;28;20105;-81
2024/01/07 00:48:24;;;;;;;12.55;6.10;;;9.00;99.90;;;;;;5030943;28;20086;-81
2024/01/07 00:50:49;;;;;;;12.52;6.30;;;9.00;99.90;;;;;;5036090;28;20186;-81
2024/01/07 00:53:15;;;;;;;13.73;6.80;;;9.00;99.90;;;;;;5032032;28;20120;-81
2024/01/07 00:55:40;;;;;;;20.13;7.57;;;9.00;99.90;;;;;;5036935;28;20154;-82
2024/01/07 00:58:06;;;;;;;12.50;6.60;;;9.00;99.90;;;;;;5033251;28;20497;-82
2024/01/07 01:00:31;;;;;;;13.50;6.78;;;9.00;99.90;;;;;;5036171;28;20030;-81
2024/01/07 01:02:58;;;;;;;15.27;7.25;;;9.00;99.90;;;;;;5029798;28;20043;-81
2024/01/07 01:05:23;;;;;;;12.98;6.13;;;9.00;99.90;;;;;;5038017;28;20112;-81
2024/01/07 01:07:49;;;;;;;13.45;6.40;;;9.00;99.90;;;;;;5036589;28;20151;-81
2024/01/07 01:10:16;;;;;;;13.80;6.30;;;9.00;99.90;;;;;;5037977;28;20107;-81
2024/01/07 01:12:42;;;;;;;10.65;6.05;;;9.00;99.90;;;;;;5031461;28;20040;-81
2024/01/07 01:15:08;;;;;;;11.43;6.85;;;9.00;99.90;;;;;;5034566;28;20407;-81
2024/01/07 01:17:34;;;;;;;11.27;6.70;;;9.00;99.90;;;;;;5034810;28;20025;-82
2024/01/07 01:19:59;;;;;;;10.98;6.30;;;9.00;99.90;;;;;;5034601;28;20523;-82
2024/01/07 01:22:25;;;;;;;8.73;5.53;;;9.00;99.90;;;;;;5032734;28;20034;-83
2024/01/07 01:24:52;;;;;;;11.50;5.43;;;9.00;99.90;;;;;;5039413;28;20017;-81
2024/01/07 01:27:18;;;;;;;9.90;5.57;;;9.00;99.90;;;;;;5033639;28;20079;-81
2024/01/07 01:29:44;;;;;;;12.43;6.38;;;9.00;99.90;;;;;;5034616;28;20025;-81
2024/01/07 01:32:09;;;;;;;15.18;6.85;;;9.00;99.90;;;;;;5034942;28;20607;-81
2024/01/07 01:34:36;;;;;;;14.57;6.57;;;9.00;99.90;;;;;;5038280;28;20029;-80
2024/01/07 01:37:01;;;;;;;13.20;6.25;;;9.00;99.90;;;;;;5030295;28;20121;-81
2024/01/07 01:39:28;;;;;;;13.02;5.80;;;9.00;99.90;;;;;;5034047;28;20120;-81
2024/01/07 01:41:54;;;;;;;18.30;6.28;;;9.00;99.90;;;;;;5033263;28;20025;-83
2024/01/07 01:44:19;;;;;;;12.88;6.40;;;9.00;99.90;;;;;;5036092;28;20096;-80
2024/01/07 01:46:46;;;;;;;9.65;5.38;;;9.00;99.90;;;;;;5032969;28;20049;-81
2024/01/07 01:49:12;;;;;;;12.35;5.70;;;9.00;99.90;;;;;;5032563;28;20563;-81
2024/01/07 01:51:38;;;;;;;11.00;5.93;;;9.00;99.90;;;;;;5029133;28;20033;-81
2024/01/07 01:54:04;;;;;;;9.57;5.50;;;9.00;99.90;;;;;;5030265;28;20641;-81
2024/01/07 01:56:30;;;;;;;9.52;5.75;;;9.00;99.90;;;;;;5033789;28;20071;-81
2024/01/07 01:58:56;;;;;;;10.25;5.75;;;9.00;99.90;;;;;;5033652;28;20049;-81
2024/01/07 02:01:23;;;;;;;11.20;5.95;;;9.00;99.90;;;;;;5032801;28;20072;-81
2024/01/07 02:03:49;;;;;;;14.05;6.50;;;9.00;99.90;;;;;;5033798;28;20010;-82
2024/01/07 02:06:16;;;;;;;11.57;6.82;;;9.00;99.90;;;;;;5035393;28;20131;-81
2024/01/07 02:08:41;;;;;;;10.27;5.93;;;9.00;99.90;;;;;;5039650;28;20033;-81
2024/01/07 02:11:18;;;;;;;12.35;5.80;;;9.00;99.90;;;;;;5034774;28;20025;-81
2024/01/07 02:13:43;;;;;;;12.35;6.18;;;9.00;99.90;;;;;;5032220;28;20040;-83
2024/01/07 02:16:09;;;;;;;11.55;5.63;;;9.00;99.90;;;;;;5033196;28;20029;-81
2024/01/07 02:18:35;;;;;;;11.80;6.13;;;9.00;99.90;;;;;;5030588;28;20025;-81
2024/01/07 02:21:00;;;;;;;8.80;5.25;;;9.00;99.90;;;;;;5035583;28;20103;-81
2024/01/07 02:23:26;;;;;;;11.07;5.28;;;9.00;99.90;;;;;;5036941;28;20399;-81
2024/01/07 02:25:51;;;;;;;11.80;5.53;;;9.00;99.90;;;;;;5035536;28;20553;-81
2024/01/07 02:28:17;;;;;;;9.82;6.03;;;9.00;99.90;;;;;;5032521;28;20080;-81
2024/01/07 02:30:43;;;;;;;11.95;6.38;;;9.00;99.90;;;;;;5032777;28;20036;-81
2024/01/07 02:33:08;;;;;;;10.07;6.03;;;9.00;99.90;;;;;;5035963;28;20044;-81
2024/01/07 02:35:34;;;;;;;12.80;5.78;;;9.00;99.90;;;;;;5031614;28;20039;-82
2024/01/07 02:37:59;;;;;;;9.40;5.90;;;9.00;99.90;;;;;;5031754;28;20018;-81
2024/01/07 02:40:25;;;;;;;9.55;5.47;;;9.00;99.90;;;;;;5033257;28;20022;-81
2024/01/07 02:42:50;;;;;;;11.18;6.40;;;9.00;99.90;;;;;;5030883;28;20021;-81
2024/01/07 02:45:16;;;;;;;9.95;5.30;;;9.00;99.90;;;;;;5034070;28;20032;-81
2024/01/07 02:47:41;;;;;;;13.65;6.72;;;9.00;99.90;;;;;;5038211;28;20110;-81
2024/01/07 02:50:07;;;;;;;9.25;5.57;;;9.00;99.90;;;;;;5033532;28;20036;-81
2024/01/07 02:52:33;;;;;;;11.73;6.00;;;9.00;99.90;;;;;;5029606;28;20021;-82
2024/01/07 02:55:01;;;;;;;12.27;6.30;;;9.00;99.90;;;;;;5033943;28;20036;-81
2024/01/07 02:57:27;;;;;;;12.77;6.05;;;9.00;99.90;;;;;;5030690;28;20480;-81
2024/01/07 02:59:52;;;;;;;12.05;6.30;;;9.00;99.90;;;;;;5038652;28;20155;-82
2024/01/07 03:02:18;;;;;;;10.77;5.90;;;9.00;99.90;;;;;;5029328;28;20032;-81
2024/01/07 03:04:43;;;;;;;11.32;6.05;;;9.00;99.90;;;;;;5029473;28;20027;-81
2024/01/07 03:07:09;;;;;;;10.70;5.93;;;9.00;99.90;;;;;;5031070;28;20049;-81
2024/01/07 03:09:35;;;;;;;9.70;5.55;;;9.00;99.90;;;;;;5029418;28;20033;-81
2024/01/07 03:12:00;;;;;;;11.82;6.57;;;8.90;99.90;;;;;;5033997;28;20030;-81
2024/01/07 03:14:26;;;;;;;14.63;6.03;;;9.00;99.90;;;;;;5031176;28;20026;-80
2024/01/07 03:16:52;;;;;;;13.35;6.20;;;8.90;99.90;;;;;;5039707;28;20442;-81
2024/01/07 03:19:18;;;;;;;11.88;5.85;;;9.00;99.90;;;;;;5031487;28;20025;-80
2024/01/07 03:21:43;;;;;;;9.82;6.05;;;9.00;99.90;;;;;;5031166;28;20125;-82
2024/01/07 03:24:09;;;;;;;17.17;6.60;;;8.90;99.90;;;;;;5037491;28;20072;-81
2024/01/07 03:26:35;;;;;;;11.98;5.82;;;9.00;99.90;;;;;;5031102;28;20026;-82
2024/01/07 03:29:01;;;;;;;9.77;5.82;;;9.00;99.90;;;;;;5031727;28;20380;-82
2024/01/07 03:31:27;;;;;;;11.07;6.35;;;9.00;99.90;;;;;;5030630;28;20029;-81
2024/01/07 03:33:53;;;;;;;14.80;6.70;;;9.00;99.90;;;;;;5032220;28;20022;-81
2024/01/07 03:36:19;;;;;;;11.55;6.40;;;9.00;99.90;;;;;;5029191;28;20033;-81
2024/01/07 03:38:44;;;;;;;10.20;6.10;;;8.90;99.90;;;;;;5030791;28;20035;-81
2024/01/07 03:41:18;;;;;;;11.73;6.10;;;9.00;99.90;;;;;;5032604;28;20017;-81
2024/01/07 03:43:48;;;;;;;11.60;6.40;;;9.00;99.90;;;;;;5036844;28;20150;-80
2024/01/07 03:46:15;;;;;;;10.95;6.72;;;9.00;99.90;;;;;;5030226;28;20017;-81
2024/01/07 03:48:42;;;;;;;15.88;6.68;;;8.90;99.90;;;;;;5029259;28;20040;-82
2024/01/07 03:51:07;;;;;;;13.90;6.10;;;8.90;99.90;;;;;;5030580;28;20022;-81
2024/01/07 03:53:33;;;;;;;18.08;6.32;;;9.00;99.90;;;;;;5028861;28;20162;-81
2024/01/07 03:55:59;;;;;;;10.85;6.35;;;9.00;99.90;;;;;;5030083;28;20029;-81
2024/01/07 03:58:24;;;;;;;15.48;6.35;;;9.00;99.90;;;;;;5029928;28;20041;-80
2024/01/07 04:00:50;;;;;;;9.30;5.85;;;8.90;99.90;;;;;;5030658;28;20368;-81
2024/01/07 04:03:15;;;;;;;11.63;6.43;;;8.90;99.90;;;;;;5028751;28;20018;-81
2024/01/07 04:05:41;;;;;;;10.68;5.72;;;8.90;99.90;;;;;;5031693;28;20099;-81
2024/01/07 04:08:09;;;;;;;14.52;6.65;;;9.00;99.90;;;;;;5037542;28;20029;-81
2024/01/07 04:10:35;;;;;;;14.15;6.20;;;8.90;99.90;;;;;;5032249;28;20029;-82
2024/01/07 04:13:00;;;;;;;11.65;6.57;;;9.00;99.90;;;;;;5039954;28;20690;-80
2024/01/07 04:15:26;;;;;;;15.60;7.20;;;8.90;99.90;;;;;;5033978;28;20480;-81
2024/01/07 04:17:52;;;;;;;14.63;7.10;;;8.90;99.90;;;;;;5037487;28;20675;-81
2024/01/07 04:20:17;;;;;;;10.88;5.78;;;8.90;99.90;;;;;;5031942;28;20014;-81
2024/01/07 04:22:43;;;;;;;16.08;6.60;;;9.00;99.90;;;;;;5030068;28;20017;-81
2024/01/07 04:25:08;;;;;;;11.48;5.70;;;8.90;99.90;;;;;;5033851;28;20023;-81
2024/01/07 04:27:35;;;;;;;11.60;6.35;;;8.90;99.90;;;;;;5035278;28;20557;-81
2024/01/07 04:30:01;;;;;;;9.82;6.10;;;8.90;99.90;;;;;;5038238;28;20056;-81
2024/01/07 04:32:27;;;;;;;12.38;6.72;;;8.90;99.90;;;;;;5031541;28;20556;-80
2024/01/07 04:34:52;;;;;;;8.88;5.45;;;8.90;99.90;;;;;;5034689;28;20112;-81
2024/01/07 04:37:18;;;;;;;12.63;5.97;;;8.90;99.90;;;;;;5028263;28;20029;-81
2024/01/07 04:39:43;;;;;;;15.73;6.78;;;8.90;99.90;;;;;;5036439;28;20030;-81
2024/01/07 04:42:09;;;;;;;9.70;6.07;;;8.90;99.90;;;;;;5040029;28;20070;-81
2024/01/07 04:44:34;;;;;;;17.55;6.55;;;8.90;99.90;;;;;;5035043;28;20125;-81
2024/01/07 04:47:00;;;;;;;11.00;5.88;;;8.90;99.90;;;;;;5033117;28;20020;-81
2024/01/07 04:49:26;;;;;;;11.23;5.85;;;9.00;99.90;;;;;;5028677;28;20025;-80
2024/01/07 04:51:51;;;;;;;14.38;7.53;;;8.90;99.90;;;;;;5037579;28;20032;-81
2024/01/07 04:54:18;;;;;;;11.60;6.28;;;8.90;99.90;;;;;;5036517;28;20021;-80
2024/01/07 04:56:44;;;;;;;10.32;6.05;;;8.90;99.90;;;;;;5033081;28;20029;-81
2024/01/07 04:59:09;;;;;;;9.98;6.00;;;8.90;99.90;;;;;;5032213;28;20026;-81
2024/01/07 05:01:35;;;;;;;9.10;5.80;;;8.90;99.90;;;;;;5028533;28;20032;-81
2024/01/07 05:04:02;;;;;;;13.60;6.15;;;8.90;99.90;;;;;;5039233;28;20017;-81
2024/01/07 05:06:28;;;;;;;10.52;5.82;;;8.90;99.90;;;;;;5032994;28;20066;-81
2024/01/07 05:08:53;;;;;;;10.50;6.18;;;8.90;99.90;;;;;;5034398;28;20638;-81
2024/01/07 05:11:19;;;;;;;12.60;7.30;;;8.90;99.90;;;;;;5037043;28;20026;-82
2024/01/07 05:13:44;;;;;;;11.13;6.68;;;8.90;99.90;;;;;;5039653;28;20079;-81
2024/01/07 05:16:19;;;;;;;12.13;6.30;;;8.90;99.90;;;;;;5039121;28;20017;-81
2024/01/07 05:18:48;;;;;;;15.05;6.70;;;8.90;99.90;;;;;;5036510;28;20387;-81
2024/01/07 05:21:14;;;;;;;13.77;7.03;;;8.90;99.90;;;;;;5036825;28;20088;-81
2024/01/07 05:23:40;;;;;;;13.25;7.30;;;8.90;99.90;;;;;;5033692;28;20025;-81
2024/01/07 05:26:06;;;;;;;11.90;6.63;;;8.90;99.90;;;;;;5039432;28;20013;-81
2024/01/07 05:28:31;;;;;;;15.52;7.13;;;8.90;99.90;;;;;;5035640;28;20032;-82
2024/01/07 05:30:57;;;;;;;10.93;6.38;;;8.90;99.90;;;;;;5035520;28;20051;-81
2024/01/07 05:33:22;;;;;;;15.55;6.90;;;8.90;99.90;;;;;;5038540;28;20108;-81
2024/01/07 05:35:48;;;;;;;12.20;6.60;;;8.90;99.90;;;;;;5036404;28;20049;-80
2024/01/07 05:38:13;;;;;;;11.30;6.95;;;8.90;99.90;;;;;;5031534;28;20120;-81
2024/01/07 05:40:39;;;;;;;15.32;6.80;;;8.90;99.90;;;;;;5041205;28;20017;-81
2024/01/07 05:43:04;;;;;;;14.90;7.10;;;8.90;99.90;;;;;;5042286;28;20717;-81
2024/01/07 05:45:30;;;;;;;13.35;6.95;;;8.90;99.90;;;;;;5036305;28;20018;-81
2024/01/07 05:47:55;;;;;;;10.55;6.55;;;8.90;99.90;;;;;;5038155;28;20117;-81
2024/01/07 05:50:21;;;;;;;13.40;7.40;;;8.90;99.90;;;;;;5036990;28;20044;-81
2024/01/07 05:52:47;;;;;;;12.93;7.25;;;8.90;99.90;;;;;;5044317;28;20052;-81
2024/01/07 05:55:13;;;;;;;14.25;6.95;;;8.90;99.90;;;;;;5040926;28;20025;-82
2024/01/07 05:57:38;;;;;;;12.93;7.28;;;8.90;99.90;;;;;;5036973;28;20456;-81
2024/01/07 06:00:04;;;;;;;17.73;7.70;;;8.90;99.90;;;;;;5041053;28;20044;-81
2024/01/07 06:02:30;;;;;;;13.20;7.40;;;8.90;99.90;;;;;;5034518;28;20013;-81
2024/01/07 06:04:55;;;;;;;14.82;7.72;;;8.90;99.90;;;;;;5037024;28;20026;-81
2024/01/07 06:07:21;;;;;;;12.57;7.25;;;8.90;99.90;;;;;;5042622;28;20108;-81
2024/01/07 06:09:48;;;;;;;15.32;7.82;;;8.90;99.90;;;;;;5044476;28;20128;-81
2024/01/07 06:12:13;;;;;;;13.68;7.38;;;8.90;99.90;;;;;;5039570;28;20372;-80
2024/01/07 06:14:39;;;;;;;12.50;7.32;;;8.90;99.90;;;;;;5034950;28;20037;-81
2024/01/07 06:17:05;;;;;;;13.88;7.13;;;8.90;99.90;;;;;;5042815;28;20040;-81
2024/01/07 06:19:30;;;;;;;15.02;7.85;;;8.90;99.90;;;;;;5040189;28;20022;-81
2024/01/07 06:21:56;;;;;;;10.60;6.60;;;8.90;99.90;;;;;;5040544;28;20017;-81
2024/01/07 06:24:21;;;;;;;15.35;8.15;;;8.90;99.90;;;;;;5038321;28;20032;-81
2024/01/07 06:26:47;;;;;;;15.98;7.97;;;8.90;99.90;;;;;;5035881;28;20693;-80
2024/01/07 06:29:13;;;;;;;14.63;6.97;;;8.90;99.90;;;;;;5038480;28;20025;-82
2024/01/07 06:31:48;;;;;;;12.70;6.97;;;8.90;99.90;;;;;;5040964;28;20069;-81
2024/01/07 06:34:14;;;;;;;14.93;8.00;;;8.90;99.90;;;;;;5043367;28;20485;-83
2024/01/07 06:36:43;;;;;;;16.30;7.50;;;8.90;99.90;;;;;;5032833;28;20022;-81
2024/01/07 06:39:09;;;;;;;12.68;7.65;;;8.90;99.90;;;;;;5038672;28;20113;-80
2024/01/07 06:41:35;;;;;;;12.57;6.40;;;9.40;99.90;;;;;;5040106;28;20517;-80
2024/01/07 06:44:01;;;;;;;10.48;6.43;;;9.20;99.90;;;;;;5041190;28;20017;-81
2024/01/07 06:46:27;;;;;;;13.05;6.80;;;9.00;99.90;;;;;;5037591;28;20017;-80
2024/01/07 06:48:52;;;;;;;12.38;6.63;;;9.00;99.90;;;;;;5034685;28;20025;-81
2024/01/07 06:51:18;;;;;;;10.70;6.18;;;8.90;99.90;;;;;;5038473;28;20029;-80
2024/01/07 06:53:43;;;;;;;14.88;7.53;;;9.00;99.90;;;;;;5042604;28;20032;-81
2024/01/07 06:56:09;;;;;;;11.40;6.60;;;8.90;99.90;;;;;;5040527;28;20028;-80
2024/01/07 06:58:34;;;;;;;10.45;6.35;;;8.90;99.90;;;;;;5039297;28;20131;-80
2024/01/07 07:01:00;;;;;;;12.55;7.25;;;8.90;99.90;;;;;;5034077;28;20017;-83
2024/01/07 07:03:26;;;;;;;12.40;7.18;;;8.90;99.90;;;;;;5030856;28;20399;-81
2024/01/07 07:05:51;;;;;;;17.00;7.88;;;8.90;99.90;;;;;;5036796;28;20097;-83
2024/01/07 07:08:17;;;;;;;12.45;6.90;;;8.90;99.90;;;;;;5036319;28;20108;-82
2024/01/07 07:10:42;;;;;;;17.02;7.90;;;8.90;99.90;;;;;;5037911;28;20025;-81
2024/01/07 07:13:08;;;;;;;14.85;7.57;;;8.90;99.90;;;;;;5039026;28;20526;-82
2024/01/07 07:15:34;;;;;;;15.32;8.68;;;8.90;99.90;;;;;;5034607;28;20025;-82
2024/01/07 07:17:59;;;;;;;11.50;6.78;;;8.90;99.90;;;;;;5035245;28;20041;-81
2024/01/07 07:20:25;;;;;;;11.73;6.95;;;8.90;99.90;;;;;;5042996;28;20027;-81
2024/01/07 07:22:50;;;;;;;12.80;6.82;;;8.90;99.90;;;;;;5035468;28;20025;-81
2024/01/07 07:25:16;;;;;;;14.35;7.63;;;8.90;99.90;;;;;;5038942;28;20479;-82
2024/01/07 07:27:41;;;;;;;13.55;7.32;;;8.90;99.90;;;;;;5030807;28;20017;-81
2024/01/07 07:30:07;;;;;;;12.27;7.10;;;8.90;99.90;;;;;;5044655;28;20025;-83
2024/01/07 07:32:33;;;;;;;13.63;7.85;;;8.90;99.90;;;;;;5041145;28;20035;-82
2024/01/07 07:34:59;;;;;;;17.42;7.50;;;8.90;99.90;;;;;;5037380;28;20482;-81
2024/01/07 07:37:25;;;;;;;12.43;7.05;;;8.90;99.90;;;;;;5037526;28;20014;-82
2024/01/07 07:39:50;;;;;;;14.23;7.85;;;8.90;99.90;;;;;;5036217;28;20036;-83
2024/01/07 07:42:16;;;;;;;14.30;7.35;;;8.90;99.90;;;;;;5040440;28;20020;-82
2024/01/07 07:44:42;;;;;;;13.98;7.72;;;8.90;99.90;;;;;;5036966;28;20055;-81
2024/01/07 07:47:08;;;;;;;15.48;8.25;;;8.90;99.90;;;;;;5040255;28;20490;-82
2024/01/07 07:49:35;;;;;;;14.07;8.55;;;8.90;99.90;;;;;;5040020;28;20483;-80
2024/01/07 07:52:00;;;;;;;12.85;7.80;;;8.90;99.90;;;;;;5038997;28;20025;-81
2024/01/07 07:54:26;;;;;;;13.05;6.97;;;8.90;99.90;;;;;;5039516;28;20664;-81
2024/01/07 07:56:52;;;;;;;13.43;7.45;;;8.90;99.90;;;;;;5039612;28;20055;-81
2024/01/07 07:59:17;;;;;;;12.85;6.75;;;8.90;99.90;;;;;;5038116;28;20494;-80
2024/01/07 08:01:43;;;;;;;16.13;7.45;;;8.90;99.90;;;;;;5035354;28;20021;-82
2024/01/07 08:04:10;;;;;;;13.88;7.57;;;8.90;99.90;;;;;;5038992;28;20021;-81
2024/01/07 08:06:35;;;;;;;14.80;7.72;;;8.90;99.90;;;;;;5034773;28;20025;-80
2024/01/07 08:09:01;;;;;;;11.15;7.53;;;8.90;99.90;;;;;;5034145;28;20030;-81
2024/01/07 08:11:26;;;;;;;13.23;7.07;;;8.80;99.90;;;;;;5035805;28;20022;-81
2024/01/07 08:13:52;;;;;;;11.23;6.13;;;8.90;99.90;;;;;;5037040;28;20087;-80
2024/01/07 08:16:18;;;;;;;12.32;7.43;;;8.80;99.90;;;;;;5035262;28;20028;-82
2024/01/07 08:18:44;;;;;;;14.02;6.90;;;8.80;99.90;;;;;;5032625;28;20026;-82
2024/01/07 08:21:10;;;;;;;13.27;7.68;;;8.80;99.90;;;;;;5043328;28;20028;-80
2024/01/07 08:23:35;;;;;;;12.25;6.95;;;8.80;99.90;;;;;;5040425;28;20026;-81
2024/01/07 08:26:02;;;;;;;12.10;7.38;;;8.90;99.90;;;;;;5039141;28;20036;-81
2024/01/07 08:28:27;;;;;;;15.35;7.70;;;8.80;99.90;;;;;;5039525;28;20052;-81
2024/01/07 08:30:53;;;;;;;12.40;6.82;;;8.90;99.90;;;;;;5034806;28;20053;-83
2024/01/07 08:33:19;;;;;;;12.48;7.30;;;8.80;99.90;;;;;;5039801;28;20052;-81
2024/01/07 08:35:44;;;;;;;16.45;7.15;;;8.80;99.90;;;;;;5036001;28;20108;-81
2024/01/07 08:38:10;;;;;;;9.75;6.40;;;8.90;99.90;;;;;;5035211;28;20808;-82
2024/01/07 08:40:36;;;;;;;12.45;7.30;;;8.90;99.90;;;;;;5030146;28;20472;-81
2024/01/07 08:43:02;;;;;;;11.65;7.43;;;8.90;99.90;;;;;;5035994;28;20053;-81
2024/01/07 08:45:27;;;;;;;9.73;6.75;;;8.80;99.90;;;;;;5038920;28;20124;-81
2024/01/07 08:47:53;;;;;;;14.60;7.47;;;8.80;99.90;;;;;;5035910;28;20109;-81
2024/01/07 08:50:19;;;;;;;15.13;7.50;;;8.90;99.90;;;;;;5034171;28;20033;-81
2024/01/07 08:52:46;;;;;;;11.10;6.25;;;8.90;99.90;;;;;;5039164;28;20485;-81
2024/01/07 08:55:12;;;;;;;12.02;6.72;;;8.90;99.90;;;;;;5038156;28;20109;-82
2024/01/07 08:57:41;;;;;;;11.27;6.95;;;8.90;99.90;;;;;;5040491;28;20024;-80
2024/01/07 09:00:09;;;;;;;13.07;7.60;;;8.90;99.90;;;;;;5038023;28;20029;-81
2024/01/07 09:02:35;;;;;;;12.50;7.43;;;8.80;99.90;;;;;;5036772;28;20410;-80
2024/01/07 09:05:01;;;;;;;14.23;7.63;;;8.80;99.90;;;;;;5031941;28;20017;-81
2024/01/07 09:07:27;;;;;;;12.32;7.13;;;8.80;99.90;;;;;;5034162;28;20549;-81
2024/01/07 09:09:55;;;;;;;15.10;7.43;;;8.80;99.90;;;;;;5039635;28;20497;-80
2024/01/07 09:12:20;;;;;;;13.68;6.82;;;8.80;99.90;;;;;;5042984;28;20025;-81
2024/01/07 09:14:46;;;;;;;11.52;6.80;;;8.80;99.90;;;;;;5036925;28;20028;-81
2024/01/07 09:17:12;;;;;;;12.07;6.97;;;8.80;99.90;;;;;;5043850;28;20029;-80
2024/01/07 09:19:38;;;;;;;13.98;6.50;;;8.80;99.90;;;;;;5032310;28;20533;-80
2024/01/07 09:22:04;;;;;;;14.63;7.07;;;8.80;99.90;;;;;;5039126;28;20020;-81
2024/01/07 09:24:30;;;;;;;10.45;6.38;;;8.80;99.90;;;;;;5042223;28;20021;-80
2024/01/07 09:26:57;;;;;;;12.65;6.88;;;8.80;99.90;;;;;;5041064;28;20021;-82
2024/01/07 09:29:22;;;;;;;5.60;3.55;;;8.80;99.90;;;;;;5043601;28;20054;-81
2024/01/07 09:31:48;;;;;;;3.30;2.25;;;9.90;99.90;;;;;;5037876;28;20392;-81
2024/01/07 09:34:14;;;;;;;12.20;3.85;;;12.20;99.90;;;;;;5043405;28;20452;-82
2024/01/07 09:36:40;;;;;;;7.85;4.07;;;12.70;99.90;;;;;;5041504;28;20031;-83
2024/01/07 09:39:06;;;;;;;9.20;5.30;;;12.70;99.90;;;;;;5041732;28;20104;-81
2024/01/07 09:41:32;;;;;;;8.85;4.65;;;12.50;99.90;;;;;;5040970;28;20097;-81
2024/01/07 09:43:59;;;;;;;10.30;5.65;;;10.90;99.90;;;;;;5036152;28;20033;-81
2024/01/07 09:46:25;;;;;;;13.23;5.57;;;9.90;99.90;;;;;;5041019;28;20074;-80
2024/01/07 09:48:51;;;;;;;12.30;6.10;;;9.30;99.90;;;;;;5040493;28;20488;-80
2024/01/07 09:51:21;;;;;;;10.35;5.32;;;8.90;99.90;;;;;;5042975;28;20047;-81
2024/01/07 09:53:48;;;;;;;;;;;8.80;99.90;;;;;;5040003;28;20044;-82
2024/01/07 09:56:21;;;;;;;12.32;6.18;;;8.70;99.90;;;;;;5043767;28;19905;-81
2024/01/07 09:58:50;;;;;;;11.38;5.75;;;8.70;99.90;;;;;;5039729;28;20396;-81
2024/01/07 10:01:19;;;;;;;9.55;4.93;;;8.60;99.90;;;;;;5042309;28;20549;-81
2024/01/07 10:03:45;;;;;;;15.07;6.25;;;8.60;99.90;;;;;;5039204;28;20555;-81
2024/01/07 10:06:11;;;;;;;11.50;5.57;;;8.50;99.90;;;;;;5046294;28;20049;-81
2024/01/07 10:08:37;;;;;;;10.35;5.80;;;8.50;99.90;;;;;;5038638;28;20022;-81
2024/01/07 10:11:04;;;;;;;10.93;6.07;;;8.60;99.90;;;;;;5042416;28;20501;-82
2024/01/07 10:13:31;;;;;;;11.65;6.00;;;8.60;99.90;;;;;;5042445;28;20013;-81
2024/01/07 10:15:56;;;;;;;10.55;5.70;;;8.60;99.90;;;;;;5038311;28;20028;-80
2024/01/07 10:18:22;;;;;;;8.77;5.00;;;8.50;99.90;;;;;;5035577;28;20025;-79
2024/01/07 10:20:48;;;;;;;10.52;4.60;;;8.50;99.90;;;;;;5036618;28;20124;-80
2024/01/07 10:23:19;;;;;;;10.18;4.90;;;8.50;99.90;;;;;;5042163;28;20059;-80
2024/01/07 10:25:45;;;;;;;10.38;5.38;;;8.40;99.90;;;;;;5041129;28;20029;-80
2024/01/07 10:28:11;;;;;;;12.60;4.93;;;8.40;99.90;;;;;;5040994;28;20028;-79
2024/01/07 10:30:40;;;;;;;9.88;4.88;;;8.40;99.90;;;;;;5038942;28;20037;-80
2024/01/07 10:33:07;;;;;;;7.53;5.10;;;8.40;99.90;;;;;;5033347;28;20025;-78
2024/01/07 10:35:35;;;;;;;10.30;4.60;;;8.40;99.90;;;;;;5041492;28;20501;-80
2024/01/07 10:38:01;;;;;;;9.80;4.75;;;8.40;99.90;;;;;;5039137;28;20040;-80
2024/01/07 10:40:33;;;;;;;10.18;5.10;;;8.40;99.90;;;;;;5041021;28;20053;-79
2024/01/07 10:42:59;;;;;;;7.55;4.45;;;8.40;99.90;;;;;;5042356;28;20020;-79
2024/01/07 10:45:24;;;;;;;9.52;4.82;;;8.40;99.90;;;;;;5039224;28;20013;-80
2024/01/07 10:47:54;;;;;;;10.15;5.32;;;8.30;99.90;;;;;;5041664;28;20016;-80
2024/01/07 10:50:21;;;;;;;10.93;4.93;;;8.40;99.90;;;;;;5040291;28;20025;-80
2024/01/07 10:52:51;;;;;;;11.80;5.15;;;8.30;99.90;;;;;;5038701;28;20021;-80
2024/01/07 10:55:18;;;;;;;9.20;5.10;;;8.30;99.90;;;;;;5041088;28;20135;-82
2024/01/07 10:57:47;;;;;;;12.27;5.88;;;8.30;99.90;;;;;;5034968;28;20025;-79
2024/01/07 11:00:20;;;;;;;9.52;5.35;;;8.30;99.90;;;;;;5039860;28;20017;-79
2024/01/07 11:03:09;;;;;;;11.60;5.35;;;8.30;99.90;;;;;;5039884;28;20025;-80
2024/01/07 11:05:59;;;;;;;12.00;5.35;;;8.20;99.90;;;;;;5039822;28;20017;-80
2024/01/07 11:08:52;;;;;;;13.45;5.00;;;8.30;99.90;;;;;;5032379;28;20028;-79
2024/01/07 11:11:26;;;;;;;9.90;5.28;;;8.30;99.90;;;;;;5041524;28;20033;-80
2024/01/07 11:13:52;;;;;;;9.43;5.22;;;8.30;99.90;;;;;;5039142;28;20404;-80
2024/01/07 11:16:56;;;;;;;14.52;5.75;;;8.30;99.90;;;;;;5036339;28;20025;-82
2024/01/07 11:19:22;;;;;;;9.05;5.05;;;8.20;99.90;;;;;;5071910;28;20027;-82
2024/01/07 11:21:48;;;;;;;10.35;5.30;;;8.30;99.90;;;;;;5064786;28;20646;-83
2024/01/07 11:24:40;;;;;;;10.68;5.80;;;8.20;99.90;;;;;;5067071;28;20024;-82
2024/01/07 11:27:09;;;;;;;12.60;5.43;;;8.20;99.90;;;;;;5074270;28;20112;-82
2024/01/07 11:29:35;;;;;;;8.32;4.95;;;8.20;99.90;;;;;;5079236;28;20028;-82
2024/01/07 11:32:01;;;;;;;11.55;5.93;;;8.30;99.90;;;;;;5066305;28;20429;-85
2024/01/07 11:34:43;;;;;;;10.27;5.53;;;8.20;99.90;;;;;;5076757;28;20028;-82
2024/01/07 11:37:13;;;;;;;14.27;5.57;;;8.20;99.90;;;;;;5076528;28;20036;-82
2024/01/07 11:39:42;;;;;;;10.25;5.47;;;8.20;99.90;;;;;;5080116;28;20103;-82
2024/01/07 11:42:07;;;;;;;9.70;5.35;;;8.20;99.90;;;;;;5066018;28;20024;-83
2024/01/07 11:44:35;;;;;;;12.23;5.68;;;8.20;99.90;;;;;;5076974;28;20031;-83
2024/01/07 11:47:01;;;;;;;10.45;4.80;;;8.20;99.90;;;;;;5071548;28;20025;-83
2024/01/07 11:49:26;;;;;;;11.18;5.63;;;8.20;99.90;;;;;;5065861;28;20688;-82
2024/01/07 11:51:52;;;;;;;13.35;6.13;;;8.20;99.90;;;;;;5038421;28;20398;-83
2024/01/07 11:54:18;;;;;;;11.35;5.43;;;8.20;99.90;;;;;;5034707;28;20272;-83
2024/01/07 11:56:44;;;;;;;12.40;6.35;;;8.20;99.90;;;;;;5037825;28;20136;-83
2024/01/07 11:59:09;;;;;;;8.82;5.05;;;8.20;99.90;;;;;;5031788;28;20686;-82
2024/01/07 12:01:35;;;;;;;9.18;5.55;;;8.20;99.90;;;;;;5041645;28;20432;-82
2024/01/07 12:04:00;;;;;;;9.73;5.50;;;8.10;99.90;;;;;;5038259;28;20491;-82
2024/01/07 12:06:26;;;;;;;8.88;4.72;;;8.20;99.90;;;;;;5037763;28;20029;-82
2024/01/07 12:08:52;;;;;;;8.98;3.40;;;8.20;99.90;;;;;;5045188;28;20032;-86
2024/01/07 12:11:19;;;;;;;8.80;4.30;;;10.90;99.90;;;;;;5037642;28;20033;-86
2024/01/07 12:13:45;;;;;;;8.10;4.65;;;9.70;99.90;;;;;;5042921;28;20488;-87
2024/01/07 12:16:11;;;;;;;13.85;5.30;;;8.90;99.90;;;;;;5037041;28;20108;-85
2024/01/07 12:18:37;;;;;;;11.00;4.90;;;8.60;99.90;;;;;;5039644;28;20107;-84
2024/01/07 12:21:03;;;;;;;11.65;5.20;;;8.40;99.90;;;;;;5043981;28;20625;-84
2024/01/07 12:23:35;;;;;;;9.30;5.13;;;8.30;99.90;;;;;;5040229;28;20100;-85
2024/01/07 12:26:08;;;;;;;12.10;5.28;;;8.30;99.90;;;;;;5035729;28;20075;-84
2024/01/07 12:28:33;;;;;;;11.45;5.95;;;8.30;99.90;;;;;;5042657;28;20495;-86
2024/01/07 12:31:01;;;;;;;14.23;6.35;;;8.20;99.90;;;;;;5037865;28;20039;-84
2024/01/07 12:33:28;;;;;;;9.75;4.88;;;8.20;99.90;;;;;;5039981;28;20033;-85
2024/01/07 12:35:55;;;;;;;11.88;5.57;;;8.30;99.90;;;;;;5037670;28;20025;-84
2024/01/07 12:38:29;;;;;;;13.73;6.72;;;8.30;99.90;;;;;;5036662;28;20510;-84
2024/01/07 12:40:56;;;;;;;11.18;6.15;;;8.20;99.90;;;;;;5049156;28;20654;-84
2024/01/07 12:43:22;;;;;;;10.23;5.95;;;8.20;99.90;;;;;;5036703;28;20021;-84
2024/01/07 12:45:48;;;;;;;12.00;6.22;;;8.20;99.90;;;;;;5040878;28;20017;-85